Time;durP1;ratioP1;P1;durP2;ratioP2;P2;SDS_P1;SDS_P2;PMS_P1;PMS_P2;Temp;Humidity;BMP_temperature;BMP_pressure;BME280_temperature;BME280_humidity;BME280_pressure;Samples;Min_cycle;Max_cycle;Signal;HPM_P1;HPM_P2
2023/10/27 00:01:30;;;;;;;39.95;14.68;;;;;;;8.80;100.00;98764.44;5005934;28;20045;-79
2023/10/27 00:04:00;;;;;;;88.25;19.13;;;;;;;8.69;100.00;98764.75;5015645;28;20044;-79
2023/10/27 00:06:27;;;;;;;138.82;23.02;;;;;;;8.63;100.00;98764.97;5024318;28;20048;-81
2023/10/27 00:08:54;;;;;;;62.17;17.90;;;;;;;8.58;100.00;98765.13;5024124;28;20046;-79
2023/10/27 00:11:20;;;;;;;141.93;24.13;;;;;;;8.54;100.00;98773.94;5003468;28;20480;-83
2023/10/27 00:13:49;;;;;;;98.10;19.65;;;;;;;8.59;100.00;98771.16;5020185;28;20055;-78
2023/10/27 00:16:15;;;;;;;89.07;17.98;;;;;;;8.59;100.00;98764.22;5015886;28;20038;-79
2023/10/27 00:18:42;;;;;;;115.60;21.20;;;;;;;8.55;100.00;98762.63;5004734;28;20057;-81
2023/10/27 00:21:08;;;;;;;108.63;22.35;;;;;;;8.49;100.00;98764.56;5024680;28;20052;-84
2023/10/27 00:23:35;;;;;;;69.45;17.08;;;;;;;8.49;100.00;98756.75;5019314;28;20056;-82
2023/10/27 00:26:04;;;;;;;97.53;19.83;;;;;;;8.49;100.00;98756.75;5023034;28;20104;-77
2023/10/27 00:28:33;;;;;;;52.97;14.73;;;;;;;8.50;100.00;98753.19;5022349;28;20037;-79
2023/10/27 00:31:00;;;;;;;121.75;22.00;;;;;;;8.50;100.00;98748.00;5008063;28;20348;-78
2023/10/27 00:33:27;;;;;;;64.25;16.02;;;;;;;8.45;100.00;98753.34;5006812;28;20053;-82
2023/10/27 00:35:54;;;;;;;90.65;17.05;;;;;;;8.47;100.00;98751.53;5018812;28;20054;-82
2023/10/27 00:38:21;;;;;;;73.63;17.48;;;;;;;8.47;100.00;98741.13;5018386;28;20041;-79
2023/10/27 00:40:48;;;;;;;106.40;20.77;;;;;;;8.47;100.00;98740.28;5022275;28;20037;-79
2023/10/27 00:43:17;;;;;;;116.90;23.65;;;;;;;8.47;100.00;98741.13;5021407;28;20148;-83
2023/10/27 00:45:50;;;;;;;49.75;15.95;;;;;;;8.44;100.00;98730.75;5002420;28;20068;-80
2023/10/27 00:48:18;;;;;;;77.35;18.75;;;;;;;8.39;100.00;98730.88;5022299;28;20042;-79
2023/10/27 00:50:45;;;;;;;77.28;19.35;;;;;;;8.40;100.00;98730.00;5023093;28;20052;-79
2023/10/27 00:53:14;;;;;;;57.47;16.60;;;;;;;8.40;100.00;98731.75;5019465;28;20042;-79
2023/10/27 00:55:42;;;;;;;141.63;24.67;;;;;;;8.39;100.00;98730.88;5019055;28;20045;-83
2023/10/27 00:58:09;;;;;;;57.65;15.27;;;;;;;8.38;100.00;98726.59;5022303;28;20041;-85
2023/10/27 01:00:37;;;;;;;31.00;11.80;;;;;;;8.38;100.00;98731.81;5026126;28;20046;-85
2023/10/27 01:03:04;;;;;;;91.25;19.30;;;;;;;8.36;100.00;98733.59;5047001;28;20061;-84
2023/10/27 01:05:31;;;;;;;54.72;16.75;;;;;;;8.36;100.00;98727.53;5046655;28;20042;-83
2023/10/27 01:07:59;;;;;;;53.10;14.70;;;;;;;8.34;100.00;98724.13;5046664;28;20115;-79
2023/10/27 01:10:26;;;;;;;27.13;12.13;;;;;;;8.31;100.00;98726.84;5032051;28;20048;-79
2023/10/27 01:12:53;;;;;;;38.72;13.27;;;;;;;8.35;100.00;98721.47;5028654;28;20029;-78
2023/10/27 01:15:20;;;;;;;34.22;12.63;;;;;;;8.33;100.00;98731.09;5008607;28;20076;-80
2023/10/27 01:17:47;;;;;;;26.33;11.40;;;;;;;8.36;100.00;98727.53;5026810;28;20049;-80
2023/10/27 01:20:16;;;;;;;54.58;15.88;;;;;;;8.28;100.00;98727.78;5007926;28;20050;-78
2023/10/27 01:22:47;;;;;;;57.92;12.95;;;;;;;8.16;100.00;98729.00;5007620;28;20413;-79
2023/10/27 01:25:15;;;;;;;45.30;12.68;;;;;;;8.16;100.00;98734.22;5027715;28;20045;-83
2023/10/27 01:27:42;;;;;;;19.80;8.70;;;;;;;8.13;100.00;98738.66;5029467;28;20041;-83
2023/10/27 01:30:10;;;;;;;37.10;9.55;;;;;;;8.12;100.00;98737.78;5042857;28;20036;-78
2023/10/27 01:32:37;;;;;;;58.85;11.00;;;;;;;8.07;100.00;98739.69;5030102;28;20041;-81
2023/10/27 01:35:08;;;;;;;60.15;10.52;;;;;;;7.90;100.00;98741.03;5028985;28;20485;-79
2023/10/27 01:37:35;;;;;;;63.45;12.18;;;;;;;7.80;100.00;98736.16;5039888;28;20045;-82
2023/10/27 01:40:02;;;;;;;50.08;11.40;;;;;;;7.67;100.00;98736.47;5008811;28;20192;-79
2023/10/27 01:42:34;;;;;;;33.55;10.23;;;;;;;7.72;100.00;98731.16;5024831;28;20489;-79
2023/10/27 01:45:06;;;;;;;27.73;9.88;;;;;;;7.74;100.00;98714.59;5028658;28;20505;-78
2023/10/27 01:47:35;;;;;;;39.38;10.60;;;;;;;7.74;100.00;98705.91;5011466;28;20636;-81
2023/10/27 01:50:04;;;;;;;36.20;11.23;;;;;;;7.79;100.00;98706.63;5011865;28;20052;-78
2023/10/27 01:52:31;;;;;;;23.75;8.65;;;;;;;7.73;100.00;98705.06;5030475;28;20439;-79
2023/10/27 01:54:57;;;;;;;32.38;9.68;;;;;;;7.75;100.00;98703.25;5026389;28;20037;-83
2023/10/27 01:57:25;;;;;;;50.83;10.65;;;;;;;7.74;100.00;98711.13;5024150;28;20061;-78
2023/10/27 01:59:51;;;;;;;26.20;9.70;;;;;;;7.73;100.00;98707.66;5025979;28;20057;-79
2023/10/27 02:02:18;;;;;;;66.63;13.05;;;;;;;7.71;100.00;98706.84;5004378;28;20056;-79
2023/10/27 02:04:45;;;;;;;15.85;7.95;;;;;;;7.75;100.00;98715.44;5024047;28;20055;-83
2023/10/27 02:07:12;;;;;;;55.35;11.98;;;;;;;7.74;100.00;98709.38;5007586;28;20532;-79
2023/10/27 02:09:40;;;;;;;47.78;9.75;;;;;;;7.70;100.00;98719.91;5026522;28;20041;-81
2023/10/27 02:12:09;;;;;;;32.25;8.88;;;;;;;7.74;100.00;98717.19;5022062;28;20041;-78
2023/10/27 02:14:37;;;;;;;27.23;8.85;;;;;;;7.71;100.00;98719.03;5010724;28;20044;-79
2023/10/27 02:17:03;;;;;;;23.65;7.72;;;;;;;7.67;100.00;98718.25;5026434;28;20056;-79
2023/10/27 02:19:29;;;;;;;32.38;7.57;;;;;;;7.58;100.00;98728.94;5028718;28;20368;-80
2023/10/27 02:21:56;;;;;;;24.35;7.80;;;;;;;7.50;100.00;98721.31;5015514;28;20045;-81
2023/10/27 02:24:23;;;;;;;40.63;8.98;;;;;;;7.53;100.00;98726.44;5026032;28;20050;-79
2023/10/27 02:26:49;;;;;;;39.00;9.50;;;;;;;7.54;100.00;98722.94;5018145;28;20572;-82
2023/10/27 02:29:17;;;;;;;53.78;11.98;;;;;;;7.51;100.00;98712.63;5010520;28;20049;-80
2023/10/27 02:31:44;;;;;;;22.48;7.97;;;;;;;7.53;100.00;98720.38;5027754;28;20048;-77
2023/10/27 02:34:11;;;;;;;46.75;10.50;;;;;;;7.50;100.00;98730.91;5029343;28;20064;-78
2023/10/27 02:36:38;;;;;;;41.20;8.30;;;;;;;7.41;100.00;98724.19;5024477;28;20767;-79
2023/10/27 02:39:04;;;;;;;12.00;6.45;;;;;;;7.44;100.00;98724.97;5026783;28;20041;-83
2023/10/27 02:41:31;;;;;;;32.58;7.38;;;;;;;7.42;100.00;98720.69;5028835;28;20071;-80
2023/10/27 02:43:59;;;;;;;41.17;9.13;;;;;;;7.31;100.00;98717.50;5024078;28;20041;-81
2023/10/27 02:46:25;;;;;;;74.18;11.10;;;;;;;7.20;100.00;98716.06;5030829;28;20739;-79
2023/10/27 02:48:52;;;;;;;56.63;9.52;;;;;;;7.25;100.00;98713.34;5028216;28;20049;-80
2023/10/27 02:51:18;;;;;;;44.63;8.40;;;;;;;7.25;100.00;98711.56;5025620;28;20661;-79
2023/10/27 02:53:45;;;;;;;56.70;9.40;;;;;;;7.26;100.00;98709.81;5031518;28;20045;-79
2023/10/27 02:56:12;;;;;;;39.03;9.60;;;;;;;7.28;100.00;98710.66;5015935;28;20124;-78
2023/10/27 02:58:38;;;;;;;53.17;10.73;;;;;;;7.32;100.00;98711.44;5020945;28;20137;-80
2023/10/27 03:01:10;;;;;;;60.08;12.43;;;;;;;7.38;100.00;98725.13;5029263;28;20036;-81
2023/10/27 03:03:37;;;;;;;40.97;8.90;;;;;;;7.44;100.00;98716.28;5015523;28;20443;-81
2023/10/27 03:06:04;;;;;;;61.00;12.20;;;;;;;7.43;100.00;98710.22;5025392;28;20048;-79
2023/10/27 03:08:33;;;;;;;37.90;9.30;;;;;;;7.47;100.00;98708.41;5025647;28;20053;-79
2023/10/27 03:11:09;;;;;;;48.60;10.13;;;;;;;7.47;100.00;98705.81;5031164;28;20053;-79
2023/10/27 03:13:36;;;;;;;26.52;8.90;;;;;;;7.49;100.00;98708.34;5038752;28;20417;-79
2023/10/27 03:16:06;;;;;;;43.15;8.95;;;;;;;7.53;100.00;98702.16;5021352;28;20084;-82
2023/10/27 03:18:32;;;;;;;40.72;8.73;;;;;;;7.40;100.00;98707.69;5026498;28;20406;-78
2023/10/27 03:21:03;;;;;;;38.97;9.68;;;;;;;7.47;100.00;98707.53;5025305;28;20042;-79
2023/10/27 03:23:30;;;;;;;28.58;8.85;;;;;;;7.50;100.00;98697.91;5005969;28;20604;-77
2023/10/27 03:25:58;;;;;;;28.27;8.60;;;;;;;7.50;100.00;98700.50;5041265;28;20072;-79
2023/10/27 03:28:25;;;;;;;31.83;8.15;;;;;;;7.51;100.00;98702.22;5021835;28;20048;-79
2023/10/27 03:30:53;;;;;;;22.48;9.60;;;;;;;7.56;100.00;98702.06;5026020;28;20048;-77
2023/10/27 03:33:20;;;;;;;29.02;7.97;;;;;;;7.51;100.00;98697.00;5021598;28;20060;-80
2023/10/27 03:35:46;;;;;;;34.60;8.93;;;;;;;7.54;100.00;98696.06;5018727;28;20038;-78
2023/10/27 03:38:13;;;;;;;16.85;7.05;;;;;;;7.52;100.00;98697.84;5022486;28;20045;-80
2023/10/27 03:40:43;;;;;;;33.25;8.27;;;;;;;7.47;100.00;98695.38;5020467;28;20037;-80
2023/10/27 03:43:10;;;;;;;10.75;6.10;;;;;;;7.49;100.00;98697.94;5024342;28;20045;-80
2023/10/27 03:45:37;;;;;;;28.83;8.40;;;;;;;7.50;100.00;98700.50;5022670;28;20041;-80
2023/10/27 03:48:04;;;;;;;21.55;7.13;;;;;;;7.48;100.00;98704.03;5009785;28;20056;-80
2023/10/27 03:50:31;;;;;;;35.08;9.15;;;;;;;7.35;100.00;98698.31;5019968;28;20052;-79
2023/10/27 03:52:57;;;;;;;29.48;8.25;;;;;;;7.39;100.00;98702.53;5009134;28;20056;-79
2023/10/27 03:55:24;;;;;;;12.95;7.45;;;;;;;7.43;100.00;98704.16;5023762;28;20057;-81
2023/10/27 03:57:54;;;;;;;22.75;7.40;;;;;;;7.48;100.00;98704.03;5023075;28;20489;-82
2023/10/27 04:00:21;;;;;;;9.75;5.93;;;;;;;7.54;100.00;98702.13;5023987;28;20045;-82
2023/10/27 04:02:47;;;;;;;20.95;8.10;;;;;;;7.55;100.00;98698.63;5013025;28;20112;-78
2023/10/27 04:05:17;;;;;;;11.48;6.70;;;;;;;7.54;100.00;98696.91;5021098;28;20052;-80
2023/10/27 04:07:43;;;;;;;32.95;8.70;;;;;;;7.50;100.00;98699.66;5016063;28;20056;-78
2023/10/27 04:10:10;;;;;;;29.17;7.60;;;;;;;7.50;100.00;98692.69;5024421;28;20929;-78
2023/10/27 04:12:37;;;;;;;9.25;6.70;;;;;;;7.54;100.00;98693.47;5022153;28;20052;-78
2023/10/27 04:15:04;;;;;;;16.88;6.57;;;;;;;7.50;100.00;98686.63;5026087;28;20053;-82
2023/10/27 04:17:30;;;;;;;16.88;7.63;;;;;;;7.52;100.00;98692.63;5025189;28;20077;-80
2023/10/27 04:19:57;;;;;;;30.55;7.22;;;;;;;7.48;100.00;98691.03;5020489;28;20516;-79
2023/10/27 04:22:25;;;;;;;17.75;6.78;;;;;;;7.48;100.00;98678.84;5023304;28;20053;-79
2023/10/27 04:24:52;;;;;;;30.00;6.38;;;;;;;7.49;100.00;98680.56;5022824;28;20038;-80
2023/10/27 04:27:20;;;;;;;13.50;6.75;;;;;;;7.47;100.00;98678.91;5030188;28;20142;-79
2023/10/27 04:29:47;;;;;;;17.40;7.32;;;;;;;7.40;100.00;98673.00;5023432;28;20037;-79
2023/10/27 04:32:15;;;;;;;28.45;8.57;;;;;;;7.47;100.00;98671.09;5025946;28;20493;-79
2023/10/27 04:34:43;;;;;;;25.92;7.85;;;;;;;7.51;100.00;98675.31;5023482;28;20631;-79
2023/10/27 04:37:10;;;;;;;18.23;7.13;;;;;;;7.53;100.00;98678.72;5027021;28;20444;-80
2023/10/27 04:39:37;;;;;;;15.70;6.82;;;;;;;7.55;100.00;98671.75;5029388;28;20442;-81
2023/10/27 04:42:04;;;;;;;12.02;7.32;;;;;;;7.58;100.00;98669.03;5020866;28;20037;-80
2023/10/27 04:44:31;;;;;;;21.98;7.47;;;;;;;7.56;100.00;98671.69;5025072;28;20097;-80
2023/10/27 04:46:57;;;;;;;41.60;9.23;;;;;;;7.52;100.00;98674.41;5007871;28;20132;-82
2023/10/27 04:49:27;;;;;;;26.50;8.18;;;;;;;7.50;100.00;98669.25;5022941;28;20065;-79
2023/10/27 04:51:55;;;;;;;11.68;6.97;;;;;;;7.57;100.00;98675.13;5027353;28;20125;-77
2023/10/27 04:54:21;;;;;;;9.10;6.57;;;;;;;7.62;100.00;98668.88;5027665;28;20125;-81
2023/10/27 04:56:48;;;;;;;13.25;7.80;;;;;;;7.60;100.00;98665.50;5014125;28;20053;-78
2023/10/27 04:59:14;;;;;;;10.20;6.63;;;;;;;7.51;100.00;98670.97;5012184;28;20038;-80
2023/10/27 05:01:41;;;;;;;11.10;6.90;;;;;;;7.59;100.00;98676.81;5028423;28;20140;-78
2023/10/27 05:04:07;;;;;;;10.60;6.30;;;;;;;7.66;100.00;98671.44;5020708;28;20041;-78
2023/10/27 05:06:34;;;;;;;13.50;7.25;;;;;;;7.68;100.00;98674.81;5024749;28;20556;-78
2023/10/27 05:09:00;;;;;;;13.43;7.38;;;;;;;7.62;100.00;98670.66;5030169;28;20044;-79
2023/10/27 05:11:27;;;;;;;24.88;8.25;;;;;;;7.51;100.00;98664.88;5025302;28;20041;-78
2023/10/27 05:13:54;;;;;;;20.17;7.75;;;;;;;7.45;100.00;98665.94;4999378;28;20053;-85
2023/10/27 05:16:20;;;;;;;11.98;7.43;;;;;;;7.53;100.00;98650.09;5001138;28;20042;-84
2023/10/27 05:18:47;;;;;;;15.63;8.07;;;;;;;7.60;100.00;98662.03;4977702;28;20061;-80
2023/10/27 05:21:16;;;;;;;23.98;8.80;;;;;;;7.64;100.00;98660.19;5007463;28;20132;-81
2023/10/27 05:23:43;;;;;;;15.88;7.85;;;;;;;7.61;100.00;98662.00;5022146;28;20033;-78
2023/10/27 05:26:10;;;;;;;13.40;8.98;;;;;;;7.71;100.00;98664.34;5023241;28;20398;-84
2023/10/27 05:28:37;;;;;;;31.23;8.68;;;;;;;7.74;100.00;98662.50;5019418;28;20553;-78
2023/10/27 05:31:04;;;;;;;24.15;8.75;;;;;;;7.65;100.00;98661.91;5027890;28;20060;-79
2023/10/27 05:33:34;;;;;;;20.50;8.77;;;;;;;7.62;100.00;98663.69;5025736;28;20113;-79
2023/10/27 05:36:00;;;;;;;18.10;7.82;;;;;;;7.62;100.00;98663.69;5032573;28;20045;-81
2023/10/27 05:38:27;;;;;;;19.30;8.27;;;;;;;7.57;100.00;98667.31;5026164;28;20056;-79
2023/10/27 05:40:53;;;;;;;13.90;8.13;;;;;;;7.58;100.00;98662.06;5028840;28;20135;-79
2023/10/27 05:43:20;;;;;;;16.73;7.68;;;;;;;7.55;100.00;98658.72;5022766;28;20049;-83
2023/10/27 05:45:47;;;;;;;23.38;8.98;;;;;;;7.55;100.00;98662.16;5005279;28;20684;-79
2023/10/27 05:48:13;;;;;;;21.52;8.95;;;;;;;7.52;100.00;98658.78;5004868;28;20046;-77
2023/10/27 05:50:40;;;;;;;14.85;7.55;;;;;;;7.52;100.00;98664.88;5029236;28;21292;-77
2023/10/27 05:53:06;;;;;;;13.55;7.65;;;;;;;7.56;100.00;98661.28;5027593;28;20044;-80
2023/10/27 05:55:33;;;;;;;13.10;8.57;;;;;;;7.55;100.00;98662.16;5022731;28;20042;-79
2023/10/27 05:57:59;;;;;;;15.27;7.97;;;;;;;7.55;100.00;98661.31;5025878;28;20052;-80
2023/10/27 06:00:26;;;;;;;18.45;8.25;;;;;;;7.50;100.00;98652.78;5014994;28;20065;-80
2023/10/27 06:02:53;;;;;;;14.88;8.32;;;;;;;7.48;100.00;98652.81;5033502;28;20037;-80
2023/10/27 06:05:21;;;;;;;18.90;7.97;;;;;;;7.48;100.00;98655.41;5023639;28;20133;-77
2023/10/27 06:07:47;;;;;;;49.50;12.07;;;;;;;7.42;100.00;98653.84;5030940;28;20037;-77
2023/10/27 06:10:14;;;;;;;60.90;12.07;;;;;;;7.40;100.00;98662.59;5025217;28;20128;-80
2023/10/27 06:12:41;;;;;;;29.48;9.57;;;;;;;7.38;100.00;98653.97;5025243;28;20053;-78
2023/10/27 06:15:08;;;;;;;49.60;12.07;;;;;;;7.39;100.00;98656.56;5021539;28;20042;-79
2023/10/27 06:17:34;;;;;;;21.83;9.52;;;;;;;7.37;100.00;98655.72;5022187;28;20292;-79
2023/10/27 06:20:02;;;;;;;25.50;8.52;;;;;;;7.34;100.00;98657.56;5024212;28;20042;-80
2023/10/27 06:22:29;;;;;;;13.68;8.65;;;;;;;7.36;100.00;98655.78;5024886;28;20038;-81
2023/10/27 06:24:56;;;;;;;28.85;10.38;;;;;;;7.44;100.00;98665.09;5028280;28;20060;-80
2023/10/27 06:27:24;;;;;;;23.75;9.50;;;;;;;7.44;100.00;98666.81;5023456;28;20052;-81
2023/10/27 06:29:51;;;;;;;32.33;12.15;;;;;;;7.49;100.00;98666.69;5026766;28;20076;-79
2023/10/27 06:32:19;;;;;;;36.17;12.18;;;;;;;7.46;100.00;98675.44;5023071;28;20041;-84
2023/10/27 06:34:46;;;;;;;14.95;8.77;;;;;;;7.53;100.00;98666.56;5015961;28;20500;-77
2023/10/27 06:37:12;;;;;;;21.83;9.75;;;;;;;7.59;100.00;98674.19;5027494;28;20044;-79
2023/10/27 06:39:40;;;;;;;26.77;10.40;;;;;;;7.51;100.00;98670.97;5026424;28;20659;-82
2023/10/27 06:42:06;;;;;;;16.73;9.75;;;;;;;7.46;100.00;98672.84;5026253;28;20068;-81
2023/10/27 06:44:33;;;;;;;18.17;8.98;;;;;;;7.47;100.00;98676.28;5009405;28;20696;-77
2023/10/27 06:46:59;;;;;;;12.27;7.72;;;;;;;7.48;100.00;98678.84;5028926;28;20052;-77
2023/10/27 06:49:26;;;;;;;9.82;7.05;;;;;;;7.50;100.00;98686.63;5028854;28;20572;-80
2023/10/27 06:51:52;;;;;;;11.07;7.07;;;;;;;7.56;100.00;98681.22;5021957;28;20026;-79
2023/10/27 06:54:19;;;;;;;12.95;7.72;;;;;;;7.61;100.00;98692.38;5028591;28;20033;-78
2023/10/27 06:56:46;;;;;;;9.68;6.97;;;;;;;7.65;100.00;98686.19;5022243;28;20061;-79
2023/10/27 06:59:23;;;;;;;9.25;6.07;;;;;;;7.65;100.00;98680.13;5018359;28;20046;-86
2023/10/27 07:01:52;;;;;;;11.23;6.47;;;;;;;7.69;100.00;98677.41;5015057;28;20196;-80
2023/10/27 07:04:20;;;;;;;9.35;5.97;;;;;;;7.71;100.00;98678.19;5019868;28;20056;-81
2023/10/27 07:06:49;;;;;;;8.05;5.70;;;;;;;7.68;100.00;98680.91;5024796;28;20052;-79
2023/10/27 07:09:15;;;;;;;10.13;5.40;;;;;;;7.77;100.00;98688.44;5022806;28;20045;-77
2023/10/27 07:11:43;;;;;;;8.90;6.03;;;;;;;7.85;100.00;98683.00;5019891;28;21056;-83
2023/10/27 07:14:14;;;;;;;10.32;7.05;;;;;;;7.91;100.00;98682.84;5025339;28;20462;-78
2023/10/27 07:16:43;;;;;;;11.80;6.97;;;;;;;7.89;100.00;98692.44;5023791;28;20045;-79
2023/10/27 07:19:20;;;;;;;13.88;8.13;;;;;;;7.84;100.00;98686.50;5023385;28;20053;-78
2023/10/27 07:21:47;;;;;;;11.88;7.45;;;;;;;7.76;100.00;98691.94;5017911;28;20045;-81
2023/10/27 07:24:14;;;;;;;12.25;7.22;;;;;;;7.80;100.00;98684.06;5014464;28;20066;-77
2023/10/27 07:26:45;;;;;;;16.10;7.10;;;;;;;7.79;100.00;98685.78;5027744;28;20048;-80
2023/10/27 07:29:11;;;;;;;16.23;8.35;;;;;;;7.85;100.00;98692.56;5023999;28;20324;-78
2023/10/27 07:31:40;;;;;;;18.63;8.52;;;;;;;7.86;100.00;98689.94;5008879;28;20128;-80
2023/10/27 07:34:07;;;;;;;20.50;8.30;;;;;;;7.83;100.00;98691.78;5026994;28;20045;-81
2023/10/27 07:36:33;;;;;;;13.82;7.38;;;;;;;7.92;100.00;98694.94;5024268;28;20037;-78
2023/10/27 07:39:00;;;;;;;13.90;7.88;;;;;;;7.99;100.00;98686.94;5008109;28;20139;-81
2023/10/27 07:41:27;;;;;;;21.83;9.77;;;;;;;7.89;100.00;98686.38;5029247;28;20029;-78
2023/10/27 07:43:54;;;;;;;21.33;8.15;;;;;;;7.99;100.00;98694.75;5006335;28;20049;-80
2023/10/27 07:46:20;;;;;;;18.08;7.88;;;;;;;8.03;100.00;98691.16;5020861;28;20037;-78
2023/10/27 07:48:48;;;;;;;20.73;8.52;;;;;;;8.12;100.00;98696.09;5020379;28;20049;-78
2023/10/27 07:51:17;;;;;;;23.00;8.27;;;;;;;8.18;100.00;98692.47;5017526;28;20064;-79
2023/10/27 07:53:43;;;;;;;19.38;8.65;;;;;;;8.16;100.00;98689.91;5032879;28;20041;-80
2023/10/27 07:56:10;;;;;;;31.33;9.55;;;;;;;8.28;100.00;98693.88;5039441;28;20041;-80
2023/10/27 07:58:37;;;;;;;18.63;8.75;;;;;;;8.39;100.00;98690.94;5012885;28;20502;-77
2023/10/27 08:01:05;;;;;;;40.78;11.48;;;;;;;8.46;100.00;98697.72;5042396;28;20045;-77
2023/10/27 08:03:33;;;;;;;29.40;9.60;;;;;;;8.46;100.00;98694.22;5028262;28;20052;-79
2023/10/27 08:06:01;;;;;;;24.20;10.30;;;;;;;8.52;100.00;98692.28;5028342;28;20048;-80
2023/10/27 08:08:27;;;;;;;41.05;15.38;;;;;;;8.54;100.00;98700.03;5022262;28;20124;-80
2023/10/27 08:10:54;;;;;;;35.42;13.35;;;;;;;8.56;100.00;98693.88;5001864;28;20433;-80
2023/10/27 08:13:20;;;;;;;29.88;13.25;;;;;;;8.60;100.00;98695.50;5013329;28;20042;-79
2023/10/27 08:15:48;;;;;;;38.80;13.07;;;;;;;8.64;100.00;98701.47;5013916;28;20141;-79
2023/10/27 08:18:16;;;;;;;39.28;14.77;;;;;;;8.65;100.00;98692.75;5032467;28;20113;-77
2023/10/27 08:20:43;;;;;;;42.20;15.02;;;;;;;8.72;100.00;98698.59;5019030;28;20092;-79
2023/10/27 08:23:11;;;;;;;45.67;14.00;;;;;;;8.74;100.00;98700.25;5012714;28;20045;-82
2023/10/27 08:25:38;;;;;;;52.75;16.58;;;;;;;8.73;100.00;98698.53;5003910;28;20050;-80
2023/10/27 08:28:08;;;;;;;39.55;15.20;;;;;;;8.72;100.00;98696.88;5012236;28;20226;-80
2023/10/27 08:30:34;;;;;;;38.13;13.30;;;;;;;8.71;100.00;98708.19;5011876;28;20050;-80
2023/10/27 08:33:01;;;;;;;33.78;11.88;;;;;;;8.73;100.00;98706.38;5014114;28;20060;-80
2023/10/27 08:35:27;;;;;;;40.90;12.13;;;;;;;8.71;100.00;98709.97;4997808;28;20152;-81
2023/10/27 08:37:57;;;;;;;41.10;13.10;;;;;;;8.73;100.00;98708.13;4998790;28;20053;-77
2023/10/27 08:40:24;;;;;;;40.63;13.85;;;;;;;8.77;100.00;98709.75;5017868;28;20050;-79
2023/10/27 08:42:51;;;;;;;38.60;12.57;;;;;;;8.77;100.00;98708.00;5000119;28;20053;-80
2023/10/27 08:45:18;;;;;;;34.80;12.55;;;;;;;8.84;100.00;98708.66;4996859;28;20074;-83
2023/10/27 08:47:44;;;;;;;36.00;13.05;;;;;;;8.84;100.00;98707.78;5013802;28;20165;-80
2023/10/27 08:50:11;;;;;;;31.25;12.25;;;;;;;8.87;100.00;98707.69;4999455;28;20068;-79
2023/10/27 08:52:39;;;;;;;35.83;12.50;;;;;;;8.79;100.00;98710.56;5014514;28;20615;-82
2023/10/27 08:55:13;;;;;;;25.85;11.50;;;;;;;8.78;100.00;98708.84;5018246;28;20141;-77
2023/10/27 08:57:39;;;;;;;24.33;12.18;;;;;;;8.92;100.00;98703.19;5017977;28;20129;-82
2023/10/27 09:00:08;;;;;;;21.92;12.02;;;;;;;9.04;100.00;98707.13;4997859;28;20064;-81
2023/10/27 09:02:38;;;;;;;24.98;11.50;;;;;;;8.99;100.00;98702.03;5015370;28;20128;-78
2023/10/27 09:05:09;;;;;;;25.98;10.13;;;;;;;9.00;100.00;98708.97;5014032;28;20196;-83
2023/10/27 09:07:39;;;;;;;19.73;11.38;;;;;;;9.09;100.00;98705.22;5011034;28;20045;-79
2023/10/27 09:10:07;;;;;;;14.73;8.68;;;;;;;9.13;100.00;98705.97;5016954;28;20050;-79
2023/10/27 09:12:36;;;;;;;17.63;10.93;;;;;;;9.21;100.00;98707.38;5020083;28;20038;-81
2023/10/27 09:15:08;;;;;;;16.17;9.20;;;;;;;9.20;100.00;98707.44;5000283;28;20045;-80
2023/10/27 09:17:51;;;;;;;20.40;10.77;;;;;;;9.28;100.00;98708.00;5005772;28;20053;-81
2023/10/27 09:20:21;;;;;;;19.30;10.30;;;;;;;9.29;100.00;98703.66;5010149;28;20060;-83
2023/10/27 09:23:01;;;;;;;17.10;10.30;;;;;;;9.32;100.00;98699.19;5011783;28;20045;-82
2023/10/27 09:25:31;;;;;;;15.82;9.63;;;;;;;9.38;100.00;98698.13;4996897;28;20053;-81
2023/10/27 09:28:02;;;;;;;16.38;9.85;;;;;;;9.47;100.00;98695.16;5011587;28;20168;-84
2023/10/27 09:30:34;;;;;;;19.90;9.93;;;;;;;9.52;100.00;98697.63;5019450;28;20040;-81
2023/10/27 09:33:26;;;;;;;17.17;10.90;;;;;;;9.64;100.00;98696.34;5021775;28;20056;-80
2023/10/27 09:35:54;;;;;;;17.52;10.30;;;;;;;9.66;100.00;98697.97;5005443;28;20042;-82
2023/10/27 09:38:22;;;;;;;21.73;10.50;;;;;;;9.64;100.00;98694.56;5022234;28;20045;-81
2023/10/27 09:40:50;;;;;;;15.68;9.73;;;;;;;9.64;100.00;98701.56;5025499;28;20054;-80
2023/10/27 09:43:23;;;;;;;15.55;10.05;;;;;;;9.70;100.00;98696.09;5056916;28;20041;-78
2023/10/27 09:45:54;;;;;;;20.65;10.95;;;;;;;9.70;100.00;98698.69;5029239;28;20096;-79
2023/10/27 09:48:30;;;;;;;18.00;11.15;;;;;;;9.68;100.00;98695.31;5019655;28;20045;-79
2023/10/27 09:51:17;;;;;;;21.08;12.00;;;;;;;9.68;100.00;98693.53;5006242;28;20140;-79
2023/10/27 09:53:54;;;;;;;17.45;10.65;;;;;;;9.78;100.00;98694.06;5043380;28;20821;-80
2023/10/27 09:56:22;;;;;;;23.85;13.35;;;;;;;9.75;100.00;98700.25;5022038;28;20087;-82
2023/10/27 09:58:49;;;;;;;23.73;12.63;;;;;;;9.73;100.00;98706.44;5014579;28;20124;-84
2023/10/27 10:01:17;;;;;;;23.80;13.48;;;;;;;9.85;100.00;98697.28;4996395;28;20103;-82
2023/10/27 10:03:43;;;;;;;22.42;12.15;;;;;;;9.96;100.00;98694.25;5025337;28;20049;-78
2023/10/27 10:06:18;;;;;;;24.67;14.30;;;;;;;9.93;100.00;98697.84;5012819;28;20310;-79
2023/10/27 10:09:11;;;;;;;21.35;12.90;;;;;;;10.04;100.00;98700.06;5021122;28;20053;-77
2023/10/27 10:11:47;;;;;;;20.95;13.05;;;;;;;10.18;100.00;98689.94;5016470;28;20458;-81
2023/10/27 10:14:39;;;;;;;21.33;13.90;;;;;;;10.32;100.00;98691.16;5018392;28;20037;-82
2023/10/27 10:17:06;;;;;;;23.45;14.23;;;;;;;10.27;100.00;98678.25;5018923;28;20041;-78
2023/10/27 10:19:49;;;;;;;21.63;13.32;;;;;;;10.37;100.00;98679.63;5024816;28;20128;-82
2023/10/27 10:22:38;;;;;;;18.33;12.93;;;;;;;10.51;100.00;98679.06;5030117;28;20335;-77
2023/10/27 10:25:21;;;;;;;22.40;13.77;;;;;;;10.50;100.00;98673.91;5026175;28;20814;-80
2023/10/27 10:28:10;;;;;;;20.88;12.63;;;;;;;10.60;100.00;98675.22;5042804;28;20062;-77
2023/10/27 10:30:43;;;;;;;24.17;15.05;;;;;;;10.59;100.00;98671.75;5018642;28;20033;-79
2023/10/27 10:33:24;;;;;;;22.00;13.60;;;;;;;10.65;100.00;98669.78;5025832;28;20045;-76
2023/10/27 10:35:53;;;;;;;25.67;15.07;;;;;;;10.57;100.00;98664.88;5016654;28;20051;-79
2023/10/27 10:38:25;;;;;;;23.20;15.48;;;;;;;10.43;100.00;98666.28;5014201;28;20064;-81
2023/10/27 10:40:57;;;;;;;23.80;15.10;;;;;;;10.47;100.00;98668.78;5032517;28;20160;-80
2023/10/27 10:43:29;;;;;;;24.70;15.38;;;;;;;10.52;100.00;98675.53;5023395;28;20042;-78
2023/10/27 10:45:58;;;;;;;26.08;16.73;;;;;;;10.51;100.00;98670.38;5024729;28;20548;-81
2023/10/27 10:48:31;;;;;;;26.67;17.60;;;;;;;10.57;100.00;98676.22;5043448;28;20037;-82
2023/10/27 10:51:11;;;;;;;24.05;15.93;;;;;;;10.58;100.00;98674.44;5023133;28;20038;-78
2023/10/27 10:53:38;;;;;;;36.75;18.10;;;;;;;10.58;100.00;98677.06;5027186;28;20116;-79
2023/10/27 10:56:05;;;;;;;31.05;17.52;;;;;;;10.51;100.00;98675.63;5028043;28;20045;-79
2023/10/27 10:58:34;;;;;;;29.67;17.23;;;;;;;10.52;100.00;98679.91;5023619;28;20200;-85
2023/10/27 11:01:03;;;;;;;29.85;17.60;;;;;;;10.51;100.00;98673.84;5020629;28;20041;-77
2023/10/27 11:03:33;;;;;;;28.02;18.00;;;;;;;10.52;100.00;98667.69;5009469;28;20132;-79
2023/10/27 11:06:05;;;;;;;28.80;17.63;;;;;;;10.50;100.00;98676.53;5017032;28;20528;-81
2023/10/27 11:08:37;;;;;;;31.00;17.30;;;;;;;10.47;100.00;98682.72;5008327;28;20576;-79
2023/10/27 11:11:08;;;;;;;30.13;18.40;;;;;;;10.48;100.00;98680.94;5024846;28;20069;-79
2023/10/27 11:13:44;;;;;;;32.65;18.60;;;;;;;10.44;100.00;98680.22;4997406;28;20117;-79
2023/10/27 11:16:18;;;;;;;31.80;20.38;;;;;;;10.49;100.00;98680.03;5018824;28;20049;-80
2023/10/27 11:18:46;;;;;;;37.17;19.05;;;;;;;10.38;100.00;98678.72;5008509;28;20082;-81
2023/10/27 11:21:24;;;;;;;33.13;18.48;;;;;;;10.34;100.00;98679.72;5029758;28;20065;-79
2023/10/27 11:23:52;;;;;;;32.08;18.85;;;;;;;10.25;100.00;98680.09;5016844;28;20148;-78
2023/10/27 11:26:26;;;;;;;32.45;19.95;;;;;;;10.29;100.00;98679.03;5020621;28;20037;-80